sensor_id;sensor_type;location;lat;lon;timestamp;temperature;humidity
41457;DHT22;27197;51.752;5.220;2023-09-18T00:01:29;24.20;87.00
41457;DHT22;27197;51.752;5.220;2023-09-18T00:03:58;24.20;87.30
41457;DHT22;27197;51.752;5.220;2023-09-18T00:06:30;24.20;86.80
41457;DHT22;27197;51.752;5.220;2023-09-18T00:09:03;24.20;86.80
41457;DHT22;27197;51.752;5.220;2023-09-18T00:11:37;24.20;86.70
41457;DHT22;27197;51.752;5.220;2023-09-18T00:14:05;24.20;86.70
41457;DHT22;27197;51.752;5.220;2023-09-18T00:16:39;24.20;86.70
41457;DHT22;27197;51.752;5.220;2023-09-18T00:19:17;24.10;86.50
41457;DHT22;27197;51.752;5.220;2023-09-18T00:21:49;24.20;86.60
41457;DHT22;27197;51.752;5.220;2023-09-18T00:24:21;24.10;86.50
41457;DHT22;27197;51.752;5.220;2023-09-18T00:26:52;24.20;86.50
41457;DHT22;27197;51.752;5.220;2023-09-18T00:29:26;24.20;87.00
41457;DHT22;27197;51.752;5.220;2023-09-18T00:32:03;24.20;86.10
41457;DHT22;27197;51.752;5.220;2023-09-18T00:34:35;24.10;86.50
41457;DHT22;27197;51.752;5.220;2023-09-18T00:37:08;24.20;87.20
41457;DHT22;27197;51.752;5.220;2023-09-18T00:39:38;24.10;86.20
41457;DHT22;27197;51.752;5.220;2023-09-18T00:42:11;24.10;86.20
41457;DHT22;27197;51.752;5.220;2023-09-18T00:44:44;24.10;86.00
41457;DHT22;27197;51.752;5.220;2023-09-18T00:47:20;24.10;85.90
41457;DHT22;27197;51.752;5.220;2023-09-18T00:49:53;24.10;86.00
41457;DHT22;27197;51.752;5.220;2023-09-18T00:52:23;24.10;86.40
41457;DHT22;27197;51.752;5.220;2023-09-18T00:54:59;24.10;85.60
41457;DHT22;27197;51.752;5.220;2023-09-18T00:57:27;24.10;85.80
41457;DHT22;27197;51.752;5.220;2023-09-18T01:00:03;24.10;85.60
41457;DHT22;27197;51.752;5.220;2023-09-18T01:02:33;24.10;85.60
41457;DHT22;27197;51.752;5.220;2023-09-18T01:05:05;24.10;85.80
41457;DHT22;27197;51.752;5.220;2023-09-18T01:07:37;24.10;85.50
41457;DHT22;27197;51.752;5.220;2023-09-18T01:10:08;24.10;85.50
41457;DHT22;27197;51.752;5.220;2023-09-18T01:13:04;24.10;85.30
41457;DHT22;27197;51.752;5.220;2023-09-18T01:15:39;24.10;85.20
41457;DHT22;27197;51.752;5.220;2023-09-18T01:18:12;24.10;85.50
41457;DHT22;27197;51.752;5.220;2023-09-18T01:20:44;24.10;85.10
41457;DHT22;27197;51.752;5.220;2023-09-18T01:23:14;24.10;85.00
41457;DHT22;27197;51.752;5.220;2023-09-18T01:25:46;24.10;85.20
41457;DHT22;27197;51.752;5.220;2023-09-18T01:28:14;24.10;85.00
41457;DHT22;27197;51.752;5.220;2023-09-18T01:30:47;24.10;84.50
41457;DHT22;27197;51.752;5.220;2023-09-18T01:33:17;24.10;84.80
41457;DHT22;27197;51.752;5.220;2023-09-18T01:35:50;24.10;84.80
41457;DHT22;27197;51.752;5.220;2023-09-18T01:38:22;24.10;85.10
41457;DHT22;27197;51.752;5.220;2023-09-18T01:40:55;24.00;84.70
41457;DHT22;27197;51.752;5.220;2023-09-18T01:43:25;24.10;84.90
41457;DHT22;27197;51.752;5.220;2023-09-18T01:45:59;24.10;84.50
41457;DHT22;27197;51.752;5.220;2023-09-18T01:48:30;24.00;84.40
41457;DHT22;27197;51.752;5.220;2023-09-18T01:51:00;24.10;85.00
41457;DHT22;27197;51.752;5.220;2023-09-18T01:53:31;24.10;83.60
41457;DHT22;27197;51.752;5.220;2023-09-18T01:56:02;24.10;84.40
41457;DHT22;27197;51.752;5.220;2023-09-18T01:58:32;24.00;83.40
41457;DHT22;27197;51.752;5.220;2023-09-18T02:01:08;23.90;83.30
41457;DHT22;27197;51.752;5.220;2023-09-18T02:03:42;23.90;84.10
41457;DHT22;27197;51.752;5.220;2023-09-18T02:06:12;23.90;83.90
41457;DHT22;27197;51.752;5.220;2023-09-18T02:08:41;23.80;83.60
41457;DHT22;27197;51.752;5.220;2023-09-18T02:11:12;23.70;82.60
41457;DHT22;27197;51.752;5.220;2023-09-18T02:13:43;23.60;84.00
41457;DHT22;27197;51.752;5.220;2023-09-18T02:16:17;23.50;83.90
41457;DHT22;27197;51.752;5.220;2023-09-18T02:18:46;23.50;83.90
41457;DHT22;27197;51.752;5.220;2023-09-18T02:21:22;23.60;84.20
41457;DHT22;27197;51.752;5.220;2023-09-18T02:23:56;23.70;85.20
41457;DHT22;27197;51.752;5.220;2023-09-18T02:26:29;23.70;85.00
41457;DHT22;27197;51.752;5.220;2023-09-18T02:29:03;23.80;84.70
41457;DHT22;27197;51.752;5.220;2023-09-18T02:31:32;23.70;84.10
41457;DHT22;27197;51.752;5.220;2023-09-18T02:34:02;23.70;83.80
41457;DHT22;27197;51.752;5.220;2023-09-18T02:36:35;23.60;84.10
41457;DHT22;27197;51.752;5.220;2023-09-18T02:39:03;23.60;84.60
41457;DHT22;27197;51.752;5.220;2023-09-18T02:41:34;23.70;84.90
41457;DHT22;27197;51.752;5.220;2023-09-18T02:44:09;23.80;85.10
41457;DHT22;27197;51.752;5.220;2023-09-18T02:46:38;23.80;84.80
41457;DHT22;27197;51.752;5.220;2023-09-18T02:49:09;23.80;84.30
41457;DHT22;27197;51.752;5.220;2023-09-18T02:51:39;23.70;82.80
41457;DHT22;27197;51.752;5.220;2023-09-18T02:54:08;23.60;82.90
41457;DHT22;27197;51.752;5.220;2023-09-18T02:56:39;23.70;84.10
41457;DHT22;27197;51.752;5.220;2023-09-18T02:59:10;23.60;84.50
41457;DHT22;27197;51.752;5.220;2023-09-18T03:01:41;23.60;83.80
41457;DHT22;27197;51.752;5.220;2023-09-18T03:04:10;23.60;84.00
41457;DHT22;27197;51.752;5.220;2023-09-18T03:06:39;23.60;84.10
41457;DHT22;27197;51.752;5.220;2023-09-18T03:09:11;23.60;83.70
41457;DHT22;27197;51.752;5.220;2023-09-18T03:11:41;23.60;84.10
41457;DHT22;27197;51.752;5.220;2023-09-18T03:14:10;23.50;82.60
41457;DHT22;27197;51.752;5.220;2023-09-18T03:16:43;23.50;83.70
41457;DHT22;27197;51.752;5.220;2023-09-18T03:19:13;23.60;85.00
41457;DHT22;27197;51.752;5.220;2023-09-18T03:21:47;23.70;84.40
41457;DHT22;27197;51.752;5.220;2023-09-18T03:32:35;23.80;84.20
41457;DHT22;27197;51.752;5.220;2023-09-18T03:35:08;23.80;83.40
41457;DHT22;27197;51.752;5.220;2023-09-18T03:37:38;23.80;83.60
41457;DHT22;27197;51.752;5.220;2023-09-18T03:40:09;23.80;82.40
41457;DHT22;27197;51.752;5.220;2023-09-18T03:42:38;23.80;83.70
41457;DHT22;27197;51.752;5.220;2023-09-18T03:45:11;23.80;82.80
41457;DHT22;27197;51.752;5.220;2023-09-18T03:47:41;23.80;83.10
41457;DHT22;27197;51.752;5.220;2023-09-18T03:50:11;23.80;83.50
41457;DHT22;27197;51.752;5.220;2023-09-18T03:52:45;23.80;83.30
41457;DHT22;27197;51.752;5.220;2023-09-18T03:55:13;23.80;83.00
41457;DHT22;27197;51.752;5.220;2023-09-18T03:57:42;23.80;82.80
41457;DHT22;27197;51.752;5.220;2023-09-18T04:00:15;23.80;82.90
41457;DHT22;27197;51.752;5.220;2023-09-18T04:02:50;23.80;82.80
41457;DHT22;27197;51.752;5.220;2023-09-18T04:05:20;23.90;82.90
41457;DHT22;27197;51.752;5.220;2023-09-18T04:07:53;23.90;82.50
41457;DHT22;27197;51.752;5.220;2023-09-18T04:10:22;23.90;81.90
41457;DHT22;27197;51.752;5.220;2023-09-18T04:12:55;23.60;82.60
41457;DHT22;27197;51.752;5.220;2023-09-18T04:15:23;23.60;83.50
41457;DHT22;27197;51.752;5.220;2023-09-18T04:17:57;23.50;82.20
41457;DHT22;27197;51.752;5.220;2023-09-18T04:20:26;23.40;83.90
41457;DHT22;27197;51.752;5.220;2023-09-18T04:23:24;23.40;83.50
41457;DHT22;27197;51.752;5.220;2023-09-18T04:25:56;23.30;83.90
41457;DHT22;27197;51.752;5.220;2023-09-18T04:28:30;23.30;84.10
41457;DHT22;27197;51.752;5.220;2023-09-18T04:31:02;23.40;84.10
41457;DHT22;27197;51.752;5.220;2023-09-18T04:33:32;23.30;83.20
41457;DHT22;27197;51.752;5.220;2023-09-18T04:36:03;23.20;84.20
41457;DHT22;27197;51.752;5.220;2023-09-18T04:38:35;23.30;84.30
41457;DHT22;27197;51.752;5.220;2023-09-18T04:41:03;23.30;84.50
41457;DHT22;27197;51.752;5.220;2023-09-18T04:43:34;23.20;84.00
41457;DHT22;27197;51.752;5.220;2023-09-18T04:46:09;23.30;84.70
41457;DHT22;27197;51.752;5.220;2023-09-18T04:48:38;23.30;84.10
41457;DHT22;27197;51.752;5.220;2023-09-18T04:51:08;23.30;84.90
41457;DHT22;27197;51.752;5.220;2023-09-18T04:53:42;23.40;84.30
41457;DHT22;27197;51.752;5.220;2023-09-18T04:56:10;23.40;83.90
41457;DHT22;27197;51.752;5.220;2023-09-18T04:58:42;23.40;83.90
41457;DHT22;27197;51.752;5.220;2023-09-18T05:01:12;23.50;83.70
41457;DHT22;27197;51.752;5.220;2023-09-18T05:03:42;23.40;84.20
41457;DHT22;27197;51.752;5.220;2023-09-18T05:06:13;23.40;84.10
41457;DHT22;27197;51.752;5.220;2023-09-18T05:08:44;23.40;83.80
41457;DHT22;27197;51.752;5.220;2023-09-18T05:11:19;23.50;83.50
41457;DHT22;27197;51.752;5.220;2023-09-18T05:13:48;23.50;83.30
41457;DHT22;27197;51.752;5.220;2023-09-18T05:16:22;23.60;82.90
41457;DHT22;27197;51.752;5.220;2023-09-18T05:18:54;23.60;82.70
41457;DHT22;27197;51.752;5.220;2023-09-18T05:21:25;23.60;83.00
41457;DHT22;27197;51.752;5.220;2023-09-18T05:23:59;23.60;82.60
41457;DHT22;27197;51.752;5.220;2023-09-18T05:26:32;23.50;82.70
41457;DHT22;27197;51.752;5.220;2023-09-18T05:29:04;23.60;82.80
41457;DHT22;27197;51.752;5.220;2023-09-18T05:31:34;23.50;82.70
41457;DHT22;27197;51.752;5.220;2023-09-18T05:34:03;23.60;80.30
41457;DHT22;27197;51.752;5.220;2023-09-18T05:36:36;23.60;79.90
41457;DHT22;27197;51.752;5.220;2023-09-18T05:39:06;23.60;80.30
41457;DHT22;27197;51.752;5.220;2023-09-18T05:41:40;23.60;80.80
41457;DHT22;27197;51.752;5.220;2023-09-18T05:44:08;23.70;81.30
41457;DHT22;27197;51.752;5.220;2023-09-18T05:46:42;23.70;82.10
41457;DHT22;27197;51.752;5.220;2023-09-18T05:49:11;23.60;82.60
41457;DHT22;27197;51.752;5.220;2023-09-18T05:51:45;23.70;82.80
41457;DHT22;27197;51.752;5.220;2023-09-18T05:54:15;23.70;83.00
41457;DHT22;27197;51.752;5.220;2023-09-18T05:56:50;23.70;83.10
41457;DHT22;27197;51.752;5.220;2023-09-18T05:59:23;23.70;82.80
41457;DHT22;27197;51.752;5.220;2023-09-18T06:01:56;23.60;83.00
41457;DHT22;27197;51.752;5.220;2023-09-18T06:04:26;23.60;83.40
41457;DHT22;27197;51.752;5.220;2023-09-18T06:06:57;23.30;83.60
41457;DHT22;27197;51.752;5.220;2023-09-18T06:09:30;23.30;83.70
41457;DHT22;27197;51.752;5.220;2023-09-18T06:12:02;23.30;84.20
41457;DHT22;27197;51.752;5.220;2023-09-18T06:14:34;23.30;83.80
41457;DHT22;27197;51.752;5.220;2023-09-18T06:17:02;23.30;84.10
41457;DHT22;27197;51.752;5.220;2023-09-18T06:19:35;23.30;84.30
41457;DHT22;27197;51.752;5.220;2023-09-18T06:22:07;23.30;84.00
41457;DHT22;27197;51.752;5.220;2023-09-18T06:24:37;23.30;83.80
41457;DHT22;27197;51.752;5.220;2023-09-18T06:27:12;23.30;83.80
41457;DHT22;27197;51.752;5.220;2023-09-18T06:29:41;23.10;84.80
41457;DHT22;27197;51.752;5.220;2023-09-18T06:32:12;23.00;84.80
41457;DHT22;27197;51.752;5.220;2023-09-18T06:34:41;23.00;84.40
41457;DHT22;27197;51.752;5.220;2023-09-18T06:37:10;22.90;85.40
41457;DHT22;27197;51.752;5.220;2023-09-18T06:40:00;23.00;85.40
41457;DHT22;27197;51.752;5.220;2023-09-18T06:42:29;22.90;85.70
41457;DHT22;27197;51.752;5.220;2023-09-18T06:44:56;23.10;85.80
41457;DHT22;27197;51.752;5.220;2023-09-18T06:47:24;23.00;84.80
41457;DHT22;27197;51.752;5.220;2023-09-18T06:49:54;23.00;84.90
41457;DHT22;27197;51.752;5.220;2023-09-18T06:52:23;23.10;86.40
41457;DHT22;27197;51.752;5.220;2023-09-18T06:54:57;23.20;84.20
41457;DHT22;27197;51.752;5.220;2023-09-18T06:57:26;23.00;84.70
41457;DHT22;27197;51.752;5.220;2023-09-18T06:59:54;23.10;84.60
41457;DHT22;27197;51.752;5.220;2023-09-18T07:02:24;23.10;85.10
41457;DHT22;27197;51.752;5.220;2023-09-18T07:04:58;23.20;84.40
41457;DHT22;27197;51.752;5.220;2023-09-18T07:07:27;23.10;84.70
41457;DHT22;27197;51.752;5.220;2023-09-18T07:09:54;23.00;85.40
41457;DHT22;27197;51.752;5.220;2023-09-18T07:12:22;23.00;84.00
41457;DHT22;27197;51.752;5.220;2023-09-18T07:14:55;23.00;84.30
41457;DHT22;27197;51.752;5.220;2023-09-18T07:17:28;22.90;84.90
41457;DHT22;27197;51.752;5.220;2023-09-18T07:19:57;22.90;85.20
41457;DHT22;27197;51.752;5.220;2023-09-18T07:22:30;22.90;85.40
41457;DHT22;27197;51.752;5.220;2023-09-18T07:24:59;22.90;85.80
41457;DHT22;27197;51.752;5.220;2023-09-18T07:27:33;22.90;84.30
41457;DHT22;27197;51.752;5.220;2023-09-18T07:30:02;22.80;84.20
41457;DHT22;27197;51.752;5.220;2023-09-18T07:32:35;22.90;86.40
41457;DHT22;27197;51.752;5.220;2023-09-18T07:35:07;22.90;84.40
41457;DHT22;27197;51.752;5.220;2023-09-18T07:37:36;22.90;84.30
41457;DHT22;27197;51.752;5.220;2023-09-18T07:40:06;23.00;83.60
41457;DHT22;27197;51.752;5.220;2023-09-18T07:42:34;22.90;84.90
41457;DHT22;27197;51.752;5.220;2023-09-18T07:45:08;22.90;83.90
41457;DHT22;27197;51.752;5.220;2023-09-18T07:47:42;22.80;83.90
41457;DHT22;27197;51.752;5.220;2023-09-18T07:50:14;22.80;84.10
41457;DHT22;27197;51.752;5.220;2023-09-18T07:52:44;22.70;85.50
41457;DHT22;27197;51.752;5.220;2023-09-18T07:55:16;22.70;83.90
41457;DHT22;27197;51.752;5.220;2023-09-18T07:57:46;22.70;84.50
41457;DHT22;27197;51.752;5.220;2023-09-18T08:00:16;22.70;84.00
41457;DHT22;27197;51.752;5.220;2023-09-18T08:02:49;22.70;85.60
41457;DHT22;27197;51.752;5.220;2023-09-18T08:05:20;22.80;84.10
41457;DHT22;27197;51.752;5.220;2023-09-18T08:07:50;22.80;84.50
41457;DHT22;27197;51.752;5.220;2023-09-18T08:10:21;22.70;83.80
41457;DHT22;27197;51.752;5.220;2023-09-18T08:12:52;22.90;86.20
41457;DHT22;27197;51.752;5.220;2023-09-18T08:15:25;23.00;86.30
41457;DHT22;27197;51.752;5.220;2023-09-18T08:17:55;23.20;85.60
41457;DHT22;27197;51.752;5.220;2023-09-18T08:20:26;23.00;83.10
41457;DHT22;27197;51.752;5.220;2023-09-18T08:22:59;22.90;83.30
41457;DHT22;27197;51.752;5.220;2023-09-18T08:25:33;22.80;82.80
41457;DHT22;27197;51.752;5.220;2023-09-18T08:28:01;22.80;84.80
41457;DHT22;27197;51.752;5.220;2023-09-18T08:30:32;22.80;84.50
41457;DHT22;27197;51.752;5.220;2023-09-18T08:33:04;22.80;83.50
41457;DHT22;27197;51.752;5.220;2023-09-18T08:35:38;22.90;83.90
41457;DHT22;27197;51.752;5.220;2023-09-18T08:38:08;22.90;83.60
41457;DHT22;27197;51.752;5.220;2023-09-18T08:40:40;22.90;83.30
41457;DHT22;27197;51.752;5.220;2023-09-18T08:43:10;23.00;84.20
41457;DHT22;27197;51.752;5.220;2023-09-18T08:45:52;23.10;84.00
41457;DHT22;27197;51.752;5.220;2023-09-18T08:48:27;23.00;83.20
41457;DHT22;27197;51.752;5.220;2023-09-18T08:51:00;23.00;83.50
41457;DHT22;27197;51.752;5.220;2023-09-18T08:53:37;23.00;83.20
41457;DHT22;27197;51.752;5.220;2023-09-18T08:56:06;23.00;83.00
41457;DHT22;27197;51.752;5.220;2023-09-18T08:58:40;23.00;83.20
41457;DHT22;27197;51.752;5.220;2023-09-18T09:01:11;23.10;82.80
41457;DHT22;27197;51.752;5.220;2023-09-18T09:03:45;23.10;82.90
41457;DHT22;27197;51.752;5.220;2023-09-18T09:06:14;23.20;83.50
41457;DHT22;27197;51.752;5.220;2023-09-18T09:08:43;23.20;83.10
41457;DHT22;27197;51.752;5.220;2023-09-18T09:11:14;23.30;82.30
41457;DHT22;27197;51.752;5.220;2023-09-18T09:14:12;23.30;81.80
41457;DHT22;27197;51.752;5.220;2023-09-18T09:16:19;23.30;82.40
41457;DHT22;27197;51.752;5.220;2023-09-18T09:18:50;23.30;81.60
41457;DHT22;27197;51.752;5.220;2023-09-18T09:21:20;23.30;81.00
41457;DHT22;27197;51.752;5.220;2023-09-18T09:23:56;23.30;80.60
41457;DHT22;27197;51.752;5.220;2023-09-18T09:26:24;23.30;80.80
41457;DHT22;27197;51.752;5.220;2023-09-18T09:28:56;23.40;80.70
41457;DHT22;27197;51.752;5.220;2023-09-18T09:31:28;23.40;80.10
41457;DHT22;27197;51.752;5.220;2023-09-18T09:34:04;23.40;80.60
41457;DHT22;27197;51.752;5.220;2023-09-18T09:36:34;23.50;80.30
41457;DHT22;27197;51.752;5.220;2023-09-18T09:39:05;23.40;79.30
41457;DHT22;27197;51.752;5.220;2023-09-18T09:41:35;23.30;80.10
41457;DHT22;27197;51.752;5.220;2023-09-18T09:44:04;23.30;79.10
41457;DHT22;27197;51.752;5.220;2023-09-18T09:46:34;23.40;80.70
41457;DHT22;27197;51.752;5.220;2023-09-18T09:49:09;23.30;79.00
41457;DHT22;27197;51.752;5.220;2023-09-18T09:51:36;23.40;80.70
41457;DHT22;27197;51.752;5.220;2023-09-18T09:54:06;23.40;81.90
41457;DHT22;27197;51.752;5.220;2023-09-18T09:56:48;23.50;81.00
41457;DHT22;27197;51.752;5.220;2023-09-18T09:59:22;23.30;79.10
41457;DHT22;27197;51.752;5.220;2023-09-18T10:01:56;23.20;79.90
41457;DHT22;27197;51.752;5.220;2023-09-18T10:04:24;23.30;81.80
41457;DHT22;27197;51.752;5.220;2023-09-18T10:06:56;23.40;79.90
41457;DHT22;27197;51.752;5.220;2023-09-18T10:09:28;23.40;79.50
41457;DHT22;27197;51.752;5.220;2023-09-18T10:12:00;23.40;79.50
41457;DHT22;27197;51.752;5.220;2023-09-18T10:14:34;23.30;81.80
41457;DHT22;27197;51.752;5.220;2023-09-18T10:17:18;23.50;81.30
41457;DHT22;27197;51.752;5.220;2023-09-18T10:20:08;23.50;83.30
41457;DHT22;27197;51.752;5.220;2023-09-18T10:22:43;23.50;81.50
41457;DHT22;27197;51.752;5.220;2023-09-18T10:25:18;23.50;81.10
41457;DHT22;27197;51.752;5.220;2023-09-18T10:27:51;23.30;81.60
41457;DHT22;27197;51.752;5.220;2023-09-18T10:30:29;23.30;81.90
41457;DHT22;27197;51.752;5.220;2023-09-18T10:33:05;23.20;80.80
41457;DHT22;27197;51.752;5.220;2023-09-18T10:35:35;23.40;83.90
41457;DHT22;27197;51.752;5.220;2023-09-18T10:38:05;23.50;82.40
41457;DHT22;27197;51.752;5.220;2023-09-18T10:40:36;23.40;80.50
41457;DHT22;27197;51.752;5.220;2023-09-18T10:43:08;23.40;80.00
41457;DHT22;27197;51.752;5.220;2023-09-18T10:45:45;23.30;80.10
41457;DHT22;27197;51.752;5.220;2023-09-18T10:48:16;23.20;81.20
41457;DHT22;27197;51.752;5.220;2023-09-18T10:50:48;23.20;80.20
41457;DHT22;27197;51.752;5.220;2023-09-18T10:53:21;23.20;80.10
41457;DHT22;27197;51.752;5.220;2023-09-18T10:55:52;23.20;81.40
41457;DHT22;27197;51.752;5.220;2023-09-18T10:58:25;23.20;81.80
41457;DHT22;27197;51.752;5.220;2023-09-18T11:00:59;23.20;79.50
41457;DHT22;27197;51.752;5.220;2023-09-18T11:03:37;23.20;79.90
41457;DHT22;27197;51.752;5.220;2023-09-18T11:06:07;23.30;80.40
41457;DHT22;27197;51.752;5.220;2023-09-18T11:08:49;23.30;79.40
41457;DHT22;27197;51.752;5.220;2023-09-18T11:11:21;23.30;80.60
41457;DHT22;27197;51.752;5.220;2023-09-18T11:13:53;23.40;82.10
41457;DHT22;27197;51.752;5.220;2023-09-18T11:16:34;23.40;81.30
41457;DHT22;27197;51.752;5.220;2023-09-18T11:19:10;23.50;81.10
41457;DHT22;27197;51.752;5.220;2023-09-18T11:21:41;23.50;82.50
41457;DHT22;27197;51.752;5.220;2023-09-18T11:24:20;23.50;82.80
41457;DHT22;27197;51.752;5.220;2023-09-18T11:26:52;23.50;78.50
41457;DHT22;27197;51.752;5.220;2023-09-18T11:29:27;23.50;78.40
41457;DHT22;27197;51.752;5.220;2023-09-18T11:31:58;23.40;80.10
41457;DHT22;27197;51.752;5.220;2023-09-18T11:34:30;23.50;77.90
41457;DHT22;27197;51.752;5.220;2023-09-18T11:37:25;23.50;79.10
41457;DHT22;27197;51.752;5.220;2023-09-18T11:39:40;23.60;81.40
41457;DHT22;27197;51.752;5.220;2023-09-18T11:42:21;23.60;79.40
41457;DHT22;27197;51.752;5.220;2023-09-18T11:44:51;23.50;76.20
41457;DHT22;27197;51.752;5.220;2023-09-18T11:47:24;23.60;80.20
41457;DHT22;27197;51.752;5.220;2023-09-18T11:49:56;23.70;78.30
41457;DHT22;27197;51.752;5.220;2023-09-18T11:52:30;23.70;77.50
41457;DHT22;27197;51.752;5.220;2023-09-18T11:55:04;23.70;78.50
41457;DHT22;27197;51.752;5.220;2023-09-18T11:57:37;23.80;77.20
41457;DHT22;27197;51.752;5.220;2023-09-18T12:00:17;23.70;77.60
41457;DHT22;27197;51.752;5.220;2023-09-18T12:02:39;23.80;78.90
41457;DHT22;27197;51.752;5.220;2023-09-18T12:05:16;23.80;77.40
41457;DHT22;27197;51.752;5.220;2023-09-18T12:07:45;23.90;78.00
41457;DHT22;27197;51.752;5.220;2023-09-18T12:10:20;23.90;77.00
41457;DHT22;27197;51.752;5.220;2023-09-18T12:12:52;23.90;77.20
41457;DHT22;27197;51.752;5.220;2023-09-18T12:15:24;23.90;75.90
41457;DHT22;27197;51.752;5.220;2023-09-18T12:17:59;23.90;76.30
41457;DHT22;27197;51.752;5.220;2023-09-18T12:20:26;23.80;76.10
41457;DHT22;27197;51.752;5.220;2023-09-18T12:22:58;23.80;75.70
41457;DHT22;27197;51.752;5.220;2023-09-18T12:25:28;23.80;76.50
41457;DHT22;27197;51.752;5.220;2023-09-18T12:28:03;23.80;75.10
41457;DHT22;27197;51.752;5.220;2023-09-18T12:30:32;23.80;75.70
41457;DHT22;27197;51.752;5.220;2023-09-18T12:33:04;23.80;76.50
41457;DHT22;27197;51.752;5.220;2023-09-18T12:35:33;23.80;75.40
41457;DHT22;27197;51.752;5.220;2023-09-18T12:38:13;23.90;75.60
41457;DHT22;27197;51.752;5.220;2023-09-18T12:40:39;23.90;75.90
41457;DHT22;27197;51.752;5.220;2023-09-18T12:43:12;24.00;74.70
41457;DHT22;27197;51.752;5.220;2023-09-18T12:45:47;24.00;73.70
41457;DHT22;27197;51.752;5.220;2023-09-18T12:48:16;24.00;74.90
41457;DHT22;27197;51.752;5.220;2023-09-18T12:50:53;24.00;74.60
41457;DHT22;27197;51.752;5.220;2023-09-18T12:53:24;24.00;74.10
41457;DHT22;27197;51.752;5.220;2023-09-18T12:56:04;24.00;76.40
41457;DHT22;27197;51.752;5.220;2023-09-18T12:58:31;24.00;75.10
41457;DHT22;27197;51.752;5.220;2023-09-18T13:01:06;24.10;76.50
41457;DHT22;27197;51.752;5.220;2023-09-18T13:03:44;24.10;74.80
41457;DHT22;27197;51.752;5.220;2023-09-18T13:06:20;24.10;75.30
41457;DHT22;27197;51.752;5.220;2023-09-18T13:08:51;24.10;73.90
41457;DHT22;27197;51.752;5.220;2023-09-18T13:11:23;24.20;74.70
41457;DHT22;27197;51.752;5.220;2023-09-18T13:13:58;24.20;73.90
41457;DHT22;27197;51.752;5.220;2023-09-18T13:16:29;24.20;76.70
41457;DHT22;27197;51.752;5.220;2023-09-18T13:19:03;24.20;75.40
41457;DHT22;27197;51.752;5.220;2023-09-18T13:21:33;24.30;75.10
41457;DHT22;27197;51.752;5.220;2023-09-18T13:24:08;24.30;75.40
41457;DHT22;27197;51.752;5.220;2023-09-18T13:26:38;24.30;74.40
41457;DHT22;27197;51.752;5.220;2023-09-18T13:29:11;24.30;73.40
41457;DHT22;27197;51.752;5.220;2023-09-18T13:31:40;24.30;73.80
41457;DHT22;27197;51.752;5.220;2023-09-18T13:34:10;24.40;71.90
41457;DHT22;27197;51.752;5.220;2023-09-18T13:36:43;24.40;73.90
41457;DHT22;27197;51.752;5.220;2023-09-18T13:39:19;24.40;72.40
41457;DHT22;27197;51.752;5.220;2023-09-18T13:41:51;24.50;71.30
41457;DHT22;27197;51.752;5.220;2023-09-18T13:44:24;24.50;74.50
41457;DHT22;27197;51.752;5.220;2023-09-18T13:46:53;24.50;71.80
41457;DHT22;27197;51.752;5.220;2023-09-18T13:49:22;24.50;74.90
41457;DHT22;27197;51.752;5.220;2023-09-18T13:51:54;24.50;73.30
41457;DHT22;27197;51.752;5.220;2023-09-18T13:54:24;24.60;71.60
41457;DHT22;27197;51.752;5.220;2023-09-18T13:56:52;24.60;73.10
41457;DHT22;27197;51.752;5.220;2023-09-18T13:59:23;24.60;70.30
41457;DHT22;27197;51.752;5.220;2023-09-18T14:01:57;24.60;69.50
41457;DHT22;27197;51.752;5.220;2023-09-18T14:04:29;24.60;71.70
41457;DHT22;27197;51.752;5.220;2023-09-18T14:06:59;24.60;70.80
41457;DHT22;27197;51.752;5.220;2023-09-18T14:09:27;24.60;69.90
41457;DHT22;27197;51.752;5.220;2023-09-18T14:11:58;24.60;69.00
41457;DHT22;27197;51.752;5.220;2023-09-18T14:14:29;24.50;68.70
41457;DHT22;27197;51.752;5.220;2023-09-18T14:16:59;24.50;67.70
41457;DHT22;27197;51.752;5.220;2023-09-18T14:19:29;24.40;66.60
41457;DHT22;27197;51.752;5.220;2023-09-18T14:22:00;24.40;67.20
41457;DHT22;27197;51.752;5.220;2023-09-18T14:24:33;24.40;68.00
41457;DHT22;27197;51.752;5.220;2023-09-18T14:27:09;24.40;67.90
41457;DHT22;27197;51.752;5.220;2023-09-18T14:29:38;24.40;66.90
41457;DHT22;27197;51.752;5.220;2023-09-18T14:32:08;24.40;67.20
41457;DHT22;27197;51.752;5.220;2023-09-18T14:34:38;24.40;67.30
41457;DHT22;27197;51.752;5.220;2023-09-18T14:37:11;24.40;68.30
41457;DHT22;27197;51.752;5.220;2023-09-18T14:39:41;24.40;67.60
41457;DHT22;27197;51.752;5.220;2023-09-18T14:42:10;24.40;66.90
41457;DHT22;27197;51.752;5.220;2023-09-18T14:44:39;24.40;67.00
41457;DHT22;27197;51.752;5.220;2023-09-18T14:47:14;24.30;68.40
41457;DHT22;27197;51.752;5.220;2023-09-18T14:49:44;24.40;67.40
41457;DHT22;27197;51.752;5.220;2023-09-18T14:52:15;24.30;68.80
41457;DHT22;27197;51.752;5.220;2023-09-18T14:54:51;24.30;68.00
41457;DHT22;27197;51.752;5.220;2023-09-18T14:57:24;24.40;69.10
41457;DHT22;27197;51.752;5.220;2023-09-18T14:59:56;24.30;68.40
41457;DHT22;27197;51.752;5.220;2023-09-18T15:02:25;24.30;69.60
41457;DHT22;27197;51.752;5.220;2023-09-18T15:04:55;24.20;69.80
41457;DHT22;27197;51.752;5.220;2023-09-18T15:07:31;24.10;70.50
41457;DHT22;27197;51.752;5.220;2023-09-18T15:09:58;24.10;70.70
41457;DHT22;27197;51.752;5.220;2023-09-18T15:12:28;24.00;71.50
41457;DHT22;27197;51.752;5.220;2023-09-18T15:14:56;24.00;72.30
41457;DHT22;27197;51.752;5.220;2023-09-18T15:17:31;23.80;72.40
41457;DHT22;27197;51.752;5.220;2023-09-18T15:20:02;23.70;73.60
41457;DHT22;27197;51.752;5.220;2023-09-18T15:22:35;23.50;74.60
41457;DHT22;27197;51.752;5.220;2023-09-18T15:25:05;23.50;74.70
41457;DHT22;27197;51.752;5.220;2023-09-18T15:27:41;23.30;75.80
41457;DHT22;27197;51.752;5.220;2023-09-18T15:30:11;23.20;75.50
41457;DHT22;27197;51.752;5.220;2023-09-18T15:32:51;23.20;76.50
41457;DHT22;27197;51.752;5.220;2023-09-18T15:35:22;23.10;78.20
41457;DHT22;27197;51.752;5.220;2023-09-18T15:37:56;23.00;77.50
41457;DHT22;27197;51.752;5.220;2023-09-18T15:40:26;23.10;77.50
41457;DHT22;27197;51.752;5.220;2023-09-18T15:42:55;23.10;79.00
41457;DHT22;27197;51.752;5.220;2023-09-18T15:45:30;23.10;77.90
41457;DHT22;27197;51.752;5.220;2023-09-18T15:48:03;23.10;78.70
41457;DHT22;27197;51.752;5.220;2023-09-18T15:50:36;23.10;79.60
41457;DHT22;27197;51.752;5.220;2023-09-18T15:53:05;23.20;80.00
41457;DHT22;27197;51.752;5.220;2023-09-18T15:55:39;23.10;79.90
41457;DHT22;27197;51.752;5.220;2023-09-18T15:58:08;23.10;79.70
41457;DHT22;27197;51.752;5.220;2023-09-18T16:00:38;23.10;80.50
41457;DHT22;27197;51.752;5.220;2023-09-18T16:03:09;23.00;80.00
41457;DHT22;27197;51.752;5.220;2023-09-18T16:05:39;23.00;79.20
41457;DHT22;27197;51.752;5.220;2023-09-18T16:08:13;23.00;80.80